createdAt,value
2019-01-19T00:00:15.804Z,99.67
2019-01-19T00:01:15.793Z,99.39
2019-01-19T00:02:15.777Z,99.96
2019-01-19T00:03:15.759Z,98.54
2019-01-19T00:04:15.743Z,99.48
2019-01-19T00:05:15.730Z,99.01
2019-01-19T00:06:15.713Z,99.39
2019-01-19T00:07:15.698Z,99.99
2019-01-19T00:08:15.681Z,99.99
2019-01-19T00:09:15.668Z,99.99
2019-01-19T00:10:15.655Z,99.99
2019-01-19T00:11:15.638Z,99.99
2019-01-19T00:12:15.623Z,99.99
2019-01-19T00:13:15.612Z,99.99
2019-01-19T00:14:15.593Z,99.99
2019-01-19T00:15:15.579Z,99.99
2019-01-19T00:16:15.563Z,99.99
2019-01-19T00:17:15.546Z,99.99
2019-01-19T00:18:15.534Z,99.99
2019-01-19T00:19:15.518Z,99.99
2019-01-19T00:20:15.501Z,99.99
2019-01-19T00:21:15.484Z,99.99
2019-01-19T00:22:15.472Z,99.99
2019-01-19T00:23:15.460Z,99.99
2019-01-19T00:24:15.442Z,99.99
2019-01-19T00:25:15.425Z,99.99
2019-01-19T00:26:15.410Z,99.99
2019-01-19T00:27:15.394Z,99.99
2019-01-19T00:28:15.378Z,99.99
2019-01-19T00:29:15.362Z,99.99
2019-01-19T00:30:15.347Z,99.99
2019-01-19T00:31:15.338Z,99.99
2019-01-19T00:32:15.318Z,99.99
2019-01-19T00:33:15.300Z,99.99
2019-01-19T00:34:15.288Z,99.99
2019-01-19T00:35:20.390Z,99.99
2019-01-19T00:36:15.257Z,99.99
2019-01-19T00:37:15.240Z,99.99
2019-01-19T00:38:15.227Z,99.99
2019-01-19T00:39:15.209Z,99.99
2019-01-19T00:40:15.195Z,99.99
2019-01-19T00:41:15.183Z,99.99
2019-01-19T00:42:15.163Z,99.99
2019-01-19T00:43:15.147Z,99.99
2019-01-19T00:44:15.139Z,99.99
2019-01-19T00:45:15.143Z,99.99
2019-01-19T00:46:15.101Z,99.99
2019-01-19T00:47:15.083Z,99.99
2019-01-19T00:48:15.321Z,99.99
2019-01-19T00:49:15.053Z,99.99
2019-01-19T00:50:15.038Z,99.99
2019-01-19T00:51:15.021Z,99.99
2019-01-19T00:52:15.010Z,99.99
2019-01-19T00:53:14.991Z,99.99
2019-01-19T00:54:14.974Z,99.99
2019-01-19T00:55:14.959Z,99.99
2019-01-19T00:56:14.942Z,99.99
2019-01-19T00:57:14.930Z,99.99
2019-01-19T00:58:14.908Z,99.99
2019-01-19T00:59:14.897Z,99.99
2019-01-19T01:00:14.881Z,99.99
2019-01-19T01:01:14.864Z,99.99
2019-01-19T01:02:14.851Z,99.99
2019-01-19T01:03:14.832Z,99.99
2019-01-19T01:04:14.821Z,99.99
2019-01-19T01:05:14.801Z,99.99
2019-01-19T01:06:14.792Z,99.99
2019-01-19T01:07:14.773Z,99.99
2019-01-19T01:08:14.753Z,99.99
2019-01-19T01:09:14.739Z,99.99
2019-01-19T01:10:14.721Z,99.99
2019-01-19T01:11:14.711Z,99.99
2019-01-19T01:12:14.692Z,99.99
2019-01-19T01:13:14.676Z,99.99
2019-01-19T01:14:14.666Z,99.99
2019-01-19T01:15:14.646Z,99.99
2019-01-19T01:16:14.629Z,99.99
2019-01-19T01:17:14.615Z,99.99
2019-01-19T01:18:14.600Z,99.99
2019-01-19T01:19:14.836Z,99.99
2019-01-19T01:20:14.572Z,99.99
2019-01-19T01:21:14.555Z,99.99
2019-01-19T01:22:14.540Z,99.99
2019-01-19T01:23:14.521Z,99.99
2019-01-19T01:24:14.506Z,99.99
2019-01-19T01:25:14.490Z,99.99
2019-01-19T01:26:14.478Z,99.99
2019-01-19T01:27:14.460Z,99.99
2019-01-19T01:28:14.444Z,99.99
2019-01-19T01:29:14.430Z,99.99
2019-01-19T01:30:14.415Z,99.99
2019-01-19T01:31:14.400Z,99.99
2019-01-19T01:32:14.386Z,99.99
2019-01-19T01:33:14.371Z,99.99
2019-01-19T01:34:14.352Z,99.99
2019-01-19T01:35:14.339Z,99.99
2019-01-19T01:36:14.324Z,99.99
2019-01-19T01:37:14.307Z,99.99
2019-01-19T01:38:14.294Z,99.99
2019-01-19T01:39:14.282Z,99.99
2019-01-19T01:40:14.263Z,99.99
2019-01-19T01:41:14.252Z,99.99
2019-01-19T01:42:14.233Z,99.99
2019-01-19T01:43:14.220Z,99.99
2019-01-19T01:44:14.201Z,99.99
2019-01-19T01:45:14.193Z,99.99
2019-01-19T01:46:14.174Z,99.99
2019-01-19T01:47:14.209Z,99.99
2019-01-19T01:48:14.140Z,99.99
2019-01-19T01:49:14.125Z,99.99
2019-01-19T01:50:14.117Z,99.99
2019-01-19T01:51:14.094Z,99.99
2019-01-19T01:52:14.076Z,99.99
2019-01-19T01:53:14.069Z,99.99
2019-01-19T01:54:14.047Z,99.99
2019-01-19T01:55:14.033Z,99.99
2019-01-19T01:56:14.019Z,99.99
2019-01-19T01:57:14.003Z,99.99
2019-01-19T01:58:13.986Z,99.99
2019-01-19T01:59:13.971Z,99.99
2019-01-19T02:00:13.959Z,99.99
2019-01-19T02:01:14.242Z,99.99
2019-01-19T02:02:13.927Z,99.99
2019-01-19T02:03:13.910Z,99.99
2019-01-19T02:04:13.905Z,99.99
2019-01-19T02:05:13.879Z,99.99
2019-01-19T02:06:13.864Z,99.99
2019-01-19T02:07:13.846Z,99.99
2019-01-19T02:08:13.832Z,99.99
2019-01-19T02:09:13.821Z,99.99
2019-01-19T02:10:13.826Z,99.99
2019-01-19T02:11:13.793Z,99.99
2019-01-19T02:12:13.774Z,99.99
2019-01-19T02:13:13.757Z,99.99
2019-01-19T02:14:13.742Z,99.99
2019-01-19T02:15:13.725Z,99.99
2019-01-19T02:16:13.716Z,99.99
2019-01-19T02:17:13.696Z,99.99
2019-01-19T02:18:13.680Z,99.99
2019-01-19T02:19:13.664Z,99.99
2019-01-19T02:20:13.651Z,99.99
2019-01-19T02:21:13.633Z,99.99
2019-01-19T02:22:13.617Z,99.99
2019-01-19T02:23:13.603Z,99.99
2019-01-19T02:24:13.586Z,99.99
2019-01-19T02:25:13.572Z,99.99
2019-01-19T02:26:13.557Z,99.99
2019-01-19T02:27:13.546Z,99.99
2019-01-19T02:28:13.535Z,99.99
2019-01-19T02:29:13.516Z,99.99
2019-01-19T02:30:13.498Z,99.99
2019-01-19T02:31:13.488Z,99.99
2019-01-19T02:32:13.472Z,99.99
2019-01-19T02:33:13.452Z,99.99
2019-01-19T02:34:13.436Z,99.99
2019-01-19T02:35:13.421Z,99.99
2019-01-19T02:36:13.406Z,99.99
2019-01-19T02:37:13.393Z,99.99
2019-01-19T02:38:13.374Z,99.99
2019-01-19T02:39:13.358Z,99.99
2019-01-19T02:40:13.343Z,99.99
2019-01-19T02:41:13.340Z,99.99
2019-01-19T02:42:13.312Z,99.99
2019-01-19T02:43:13.301Z,99.99
2019-01-19T02:44:13.282Z,99.99
2019-01-19T02:45:13.276Z,99.99
2019-01-19T02:46:13.345Z,99.99
2019-01-19T02:47:13.250Z,99.99
2019-01-19T02:48:13.221Z,99.99
2019-01-19T02:49:13.206Z,99.99
2019-01-19T02:50:13.191Z,99.99
2019-01-19T02:51:13.177Z,99.99
2019-01-19T02:52:13.161Z,99.99
2019-01-19T02:53:13.151Z,99.99
2019-01-19T02:54:13.148Z,99.99
2019-01-19T02:55:13.121Z,99.99
2019-01-19T02:56:13.097Z,99.99
2019-01-19T02:57:13.087Z,99.99
2019-01-19T02:58:13.085Z,99.99
2019-01-19T02:59:13.055Z,99.99
2019-01-19T03:00:13.042Z,99.99
2019-01-19T03:01:13.028Z,99.99
2019-01-19T03:02:13.005Z,99.99
2019-01-19T03:03:12.994Z,99.99
2019-01-19T03:04:12.976Z,99.99
2019-01-19T03:05:12.970Z,99.99
2019-01-19T03:06:12.950Z,99.99
2019-01-19T03:07:12.937Z,99.99
2019-01-19T03:08:12.915Z,99.99
2019-01-19T03:09:12.905Z,99.99
2019-01-19T03:10:12.884Z,99.99
2019-01-19T03:11:12.871Z,99.99
2019-01-19T03:12:12.855Z,99.99
2019-01-19T03:13:12.846Z,99.99
2019-01-19T03:14:12.825Z,99.99
2019-01-19T03:15:12.810Z,99.99
2019-01-19T03:16:12.795Z,99.99
2019-01-19T03:17:12.777Z,99.99
2019-01-19T03:18:12.762Z,99.99
2019-01-19T03:19:12.747Z,99.99
2019-01-19T03:20:12.731Z,99.99
2019-01-19T03:21:12.718Z,99.99
2019-01-19T03:22:12.704Z,99.99
2019-01-19T03:23:12.687Z,99.99
2019-01-19T03:24:12.920Z,99.99
2019-01-19T03:25:12.655Z,99.99
2019-01-19T03:26:12.643Z,99.99
2019-01-19T03:27:12.623Z,99.99
2019-01-19T03:28:12.607Z,99.99
2019-01-19T03:29:12.593Z,99.99
2019-01-19T03:30:12.586Z,99.99
2019-01-19T03:31:12.599Z,99.99
2019-01-19T03:32:12.548Z,99.99
2019-01-19T03:33:12.538Z,99.99
2019-01-19T03:34:12.515Z,99.99
2019-01-19T03:35:12.503Z,99.99
2019-01-19T03:36:12.486Z,99.99
2019-01-19T03:37:12.468Z,99.99
2019-01-19T03:38:12.457Z,99.99
2019-01-19T03:39:12.440Z,99.99
2019-01-19T03:40:12.425Z,99.99
2019-01-19T03:41:12.408Z,99.99
2019-01-19T03:42:12.396Z,99.99
2019-01-19T03:43:12.385Z,99.99
2019-01-19T03:44:12.361Z,99.99
2019-01-19T03:45:12.343Z,99.99
2019-01-19T03:46:12.343Z,99.99
2019-01-19T03:47:12.311Z,99.99
2019-01-19T03:48:12.297Z,99.99
2019-01-19T03:49:12.279Z,99.99
2019-01-19T03:50:12.273Z,99.99
2019-01-19T03:51:12.253Z,99.99
2019-01-19T03:52:12.234Z,99.99
2019-01-19T03:53:12.216Z,99.99
2019-01-19T03:54:12.202Z,99.99
2019-01-19T03:55:12.436Z,99.99
2019-01-19T03:56:12.169Z,99.99
2019-01-19T03:57:12.154Z,99.99
2019-01-19T03:58:12.138Z,99.99
2019-01-19T03:59:12.126Z,99.99
2019-01-19T04:00:12.107Z,99.99
2019-01-19T04:01:12.141Z,99.99
2019-01-19T04:02:12.079Z,99.99
2019-01-19T04:03:12.062Z,99.99
2019-01-19T04:04:12.039Z,99.99
2019-01-19T04:05:12.027Z,99.99
2019-01-19T04:06:15.325Z,99.99
2019-01-19T04:07:11.998Z,99.99
2019-01-19T04:08:11.985Z,99.99
2019-01-19T04:09:11.959Z,99.99
2019-01-19T04:10:11.951Z,99.99
2019-01-19T04:11:11.930Z,99.99
2019-01-19T04:12:11.912Z,99.99
2019-01-19T04:13:11.901Z,99.99
2019-01-19T04:14:11.881Z,99.99
2019-01-19T04:15:11.864Z,99.99
2019-01-19T04:16:11.873Z,99.99
2019-01-19T04:17:11.829Z,99.99
2019-01-19T04:18:11.817Z,99.99
2019-01-19T04:19:11.793Z,99.99
2019-01-19T04:20:11.779Z,99.99
2019-01-19T04:21:11.763Z,99.99
2019-01-19T04:22:11.746Z,99.99
2019-01-19T04:23:11.730Z,99.99
2019-01-19T04:24:11.713Z,99.99
2019-01-19T04:25:11.695Z,99.99
2019-01-19T04:26:11.683Z,99.99
2019-01-19T04:27:11.675Z,99.99
2019-01-19T04:28:11.645Z,99.99
2019-01-19T04:29:11.632Z,99.99
2019-01-19T04:30:11.701Z,99.99
2019-01-19T04:31:11.353Z,99.99
2019-01-19T04:32:11.583Z,99.99
2019-01-19T04:33:11.562Z,99.99
2019-01-19T04:34:11.546Z,99.99
2019-01-19T04:35:11.528Z,99.99
2019-01-19T04:36:11.523Z,99.99
2019-01-19T04:37:11.577Z,99.99
2019-01-19T04:38:11.534Z,99.99
2019-01-19T04:39:11.460Z,99.99
2019-01-19T04:40:11.442Z,99.99
2019-01-19T04:41:11.431Z,99.99
2019-01-19T04:42:11.415Z,99.99
2019-01-19T04:43:11.392Z,99.99
2019-01-19T04:44:11.373Z,99.99
2019-01-19T04:45:11.363Z,99.99
2019-01-19T04:46:11.348Z,99.99
2019-01-19T04:47:11.324Z,99.99
2019-01-19T04:48:11.304Z,99.99
2019-01-19T04:49:11.286Z,99.99
2019-01-19T04:50:11.270Z,99.99
2019-01-19T04:51:11.258Z,99.99
2019-01-19T04:52:11.242Z,99.99
2019-01-19T04:53:11.221Z,99.99
2019-01-19T04:54:11.208Z,99.99
2019-01-19T04:55:11.185Z,99.99
2019-01-19T04:56:11.170Z,99.99
2019-01-19T04:57:11.153Z,99.99
2019-01-19T04:58:11.136Z,99.99
2019-01-19T04:59:11.128Z,99.99
2019-01-19T05:00:11.102Z,99.99
2019-01-19T05:01:11.091Z,99.99
2019-01-19T05:02:11.071Z,99.99
2019-01-19T05:03:11.055Z,99.99
2019-01-19T05:04:11.040Z,99.99
2019-01-19T05:05:11.017Z,99.99
2019-01-19T05:06:14.966Z,99.99
2019-01-19T05:07:10.983Z,99.99
2019-01-19T05:08:10.964Z,99.99
2019-01-19T05:09:10.948Z,99.99
2019-01-19T05:10:10.930Z,99.99
2019-01-19T05:11:10.914Z,99.99
2019-01-19T05:12:10.897Z,99.99
2019-01-19T05:13:10.880Z,99.99
2019-01-19T05:14:10.861Z,99.99
2019-01-19T05:15:10.844Z,99.99
2019-01-19T05:16:10.830Z,99.99
2019-01-19T05:17:10.813Z,99.99
2019-01-19T05:18:10.797Z,99.99
2019-01-19T05:19:10.797Z,99.99
2019-01-19T05:20:10.762Z,99.99
2019-01-19T05:21:10.744Z,99.99
2019-01-19T05:22:10.729Z,99.99
2019-01-19T05:23:10.824Z,99.99
2019-01-19T05:24:10.708Z,99.99
2019-01-19T05:25:10.681Z,99.99
2019-01-19T05:26:10.666Z,99.99
2019-01-19T05:27:10.647Z,99.99
2019-01-19T05:28:10.630Z,99.99
2019-01-19T05:29:10.612Z,99.99
2019-01-19T05:30:10.596Z,99.99
2019-01-19T05:31:10.584Z,99.99
2019-01-19T05:32:10.643Z,99.99
2019-01-19T05:33:10.545Z,99.99
2019-01-19T05:34:10.555Z,99.99
2019-01-19T05:35:10.514Z,99.99
2019-01-19T05:36:10.500Z,99.99
2019-01-19T05:37:10.483Z,99.99
2019-01-19T05:38:10.463Z,99.99
2019-01-19T05:39:10.449Z,99.99
2019-01-19T05:40:10.440Z,99.99
2019-01-19T05:41:10.415Z,99.99
2019-01-19T05:42:10.398Z,99.99
2019-01-19T05:43:10.388Z,99.99
2019-01-19T05:44:10.368Z,99.99
2019-01-19T05:45:10.361Z,99.99
2019-01-19T05:46:10.340Z,99.99
2019-01-19T05:47:10.317Z,99.99
2019-01-19T05:48:10.316Z,99.99
2019-01-19T05:49:10.285Z,99.99
2019-01-19T05:50:10.267Z,99.99
2019-01-19T05:51:10.253Z,99.99
2019-01-19T05:52:10.240Z,99.99
2019-01-19T05:53:10.264Z,99.99
2019-01-19T05:54:10.203Z,99.99
2019-01-19T05:55:10.189Z,99.99
2019-01-19T05:56:10.173Z,99.99
2019-01-19T05:57:10.156Z,99.99
2019-01-19T05:58:10.141Z,99.99
2019-01-19T05:59:10.125Z,99.99
2019-01-19T06:00:10.112Z,99.99
2019-01-19T06:01:10.106Z,99.99
2019-01-19T06:02:10.077Z,99.99
2019-01-19T06:03:10.058Z,99.99
2019-01-19T06:04:10.041Z,99.99
2019-01-19T06:05:10.025Z,99.99
2019-01-19T06:06:10.014Z,99.99
2019-01-19T06:07:09.994Z,99.99
2019-01-19T06:08:09.980Z,99.99
2019-01-19T06:09:09.967Z,99.99
2019-01-19T06:10:09.950Z,99.99
2019-01-19T06:11:09.932Z,99.99
2019-01-19T06:12:09.913Z,99.99
2019-01-19T06:13:09.896Z,99.99
2019-01-19T06:14:09.892Z,99.99
2019-01-19T06:15:09.865Z,99.99
2019-01-19T06:16:09.868Z,99.99
2019-01-19T06:17:09.832Z,99.99
2019-01-19T06:18:09.827Z,99.99
2019-01-19T06:19:09.803Z,99.99
2019-01-19T06:20:09.787Z,99.99
2019-01-19T06:21:09.767Z,99.99
2019-01-19T06:22:09.751Z,99.99
2019-01-19T06:23:09.741Z,99.99
2019-01-19T06:24:09.725Z,99.99
2019-01-19T06:25:09.712Z,99.99
2019-01-19T06:26:09.688Z,99.99
2019-01-19T06:27:09.672Z,99.99
2019-01-19T06:28:09.653Z,99.99
2019-01-19T06:29:09.637Z,99.99
2019-01-19T06:30:09.628Z,99.99
2019-01-19T06:31:09.857Z,99.99
2019-01-19T06:32:09.599Z,99.99
2019-01-19T06:33:09.574Z,99.99
2019-01-19T06:34:09.553Z,99.99
2019-01-19T06:35:09.538Z,99.99
2019-01-19T06:36:09.544Z,99.99
2019-01-19T06:37:09.262Z,99.99
2019-01-19T06:38:09.497Z,99.99
2019-01-19T06:39:09.475Z,99.99
2019-01-19T06:40:09.467Z,99.99
2019-01-19T06:41:09.439Z,99.99
2019-01-19T06:42:09.421Z,99.99
2019-01-19T06:43:09.407Z,99.99
2019-01-19T06:44:09.387Z,99.99
2019-01-19T06:45:09.371Z,99.99
2019-01-19T06:46:09.361Z,99.99
2019-01-19T06:47:09.338Z,99.99
2019-01-19T06:48:09.320Z,99.99
2019-01-19T06:49:09.305Z,99.99
2019-01-19T06:50:09.287Z,99.99
2019-01-19T06:51:09.269Z,99.99
2019-01-19T06:52:09.253Z,99.99
2019-01-19T06:53:09.246Z,99.99
2019-01-19T06:54:09.224Z,99.99
2019-01-19T06:55:09.207Z,99.99
2019-01-19T06:56:09.186Z,99.99
2019-01-19T06:57:09.169Z,99.99
2019-01-19T06:58:09.156Z,99.99
2019-01-19T06:59:09.138Z,99.99
2019-01-19T07:00:09.119Z,99.99
2019-01-19T07:01:09.100Z,99.99
2019-01-19T07:02:09.338Z,99.99
2019-01-19T07:03:09.076Z,99.99
2019-01-19T07:04:09.051Z,99.99
2019-01-19T07:05:09.035Z,99.99
2019-01-19T07:06:09.017Z,99.99
2019-01-19T07:07:09.001Z,99.99
2019-01-19T07:08:08.986Z,99.99
2019-01-19T07:09:08.968Z,99.99
2019-01-19T07:10:08.949Z,99.99
2019-01-19T07:11:08.932Z,99.99
2019-01-19T07:12:08.918Z,99.99
2019-01-19T07:13:08.901Z,99.99
2019-01-19T07:14:08.887Z,99.99
2019-01-19T07:15:08.867Z,99.99
2019-01-19T07:16:08.854Z,99.99
2019-01-19T07:17:08.838Z,99.99
2019-01-19T07:18:08.830Z,99.99
2019-01-19T07:19:08.802Z,99.99
2019-01-19T07:20:08.786Z,99.99
2019-01-19T07:21:08.766Z,99.99
2019-01-19T07:22:08.755Z,99.99
2019-01-19T07:23:08.735Z,99.99
2019-01-19T07:24:08.721Z,99.99
2019-01-19T07:25:08.702Z,99.99
2019-01-19T07:26:08.688Z,99.99
2019-01-19T07:27:08.699Z,99.99
2019-01-19T07:28:08.654Z,99.99
2019-01-19T07:29:08.644Z,99.99
2019-01-19T07:30:08.627Z,99.99
2019-01-19T07:31:08.605Z,99.99
2019-01-19T07:32:08.590Z,99.99
2019-01-19T07:33:08.574Z,99.99
2019-01-19T07:34:08.558Z,99.99
2019-01-19T07:35:08.541Z,99.99
2019-01-19T07:36:08.525Z,99.99
2019-01-19T07:37:12.358Z,99.99
2019-01-19T07:38:08.491Z,99.99
2019-01-19T07:39:08.476Z,99.99
2019-01-19T07:40:08.460Z,99.99
2019-01-19T07:41:08.447Z,99.99
2019-01-19T07:42:08.429Z,99.99
2019-01-19T07:43:08.416Z,99.99
2019-01-19T07:44:08.443Z,99.99
2019-01-19T07:45:08.379Z,99.99
2019-01-19T07:46:08.363Z,99.99
2019-01-19T07:47:08.348Z,99.99
2019-01-19T07:48:08.331Z,99.99
2019-01-19T07:49:08.315Z,99.99
2019-01-19T07:50:08.300Z,99.99
2019-01-19T07:51:08.288Z,99.99
2019-01-19T07:52:08.270Z,99.99
2019-01-19T07:53:08.254Z,99.99
2019-01-19T07:54:08.535Z,99.99
2019-01-19T07:55:08.227Z,99.99
2019-01-19T07:56:08.203Z,99.99
2019-01-19T07:57:08.188Z,99.99
2019-01-19T07:58:08.170Z,99.99
2019-01-19T07:59:08.155Z,99.99
2019-01-19T08:00:08.140Z,99.99
2019-01-19T08:01:08.120Z,99.99
2019-01-19T08:02:08.106Z,99.99
2019-01-19T08:03:08.088Z,99.99
2019-01-19T08:04:08.074Z,99.99
2019-01-19T08:05:08.057Z,99.99
2019-01-19T08:06:08.041Z,99.99
2019-01-19T08:07:08.028Z,99.99
2019-01-19T08:08:08.012Z,99.99
2019-01-19T08:09:08.001Z,99.99
2019-01-19T08:10:07.975Z,99.99
2019-01-19T08:11:07.959Z,99.99
2019-01-19T08:12:07.945Z,99.99
2019-01-19T08:13:07.929Z,99.99
2019-01-19T08:14:07.912Z,99.99
2019-01-19T08:15:07.894Z,99.99
2019-01-19T08:16:07.880Z,99.99
2019-01-19T08:17:09.406Z,99.99
2019-01-19T08:18:07.848Z,99.99
2019-01-19T08:19:07.831Z,99.99
2019-01-19T08:20:07.814Z,99.99
2019-01-19T08:21:07.800Z,99.99
2019-01-19T08:22:07.780Z,99.99
2019-01-19T08:23:07.765Z,99.99
2019-01-19T08:24:07.753Z,99.99
2019-01-19T08:25:07.735Z,99.99
2019-01-19T08:26:07.721Z,99.99
2019-01-19T08:27:07.701Z,99.99
2019-01-19T08:28:07.688Z,99.99
2019-01-19T08:29:07.669Z,99.99
2019-01-19T08:30:07.655Z,99.99
2019-01-19T08:31:07.639Z,99.99
2019-01-19T08:32:07.620Z,99.99
2019-01-19T08:33:07.605Z,99.99
2019-01-19T08:34:07.588Z,99.99
2019-01-19T08:35:07.574Z,99.99
2019-01-19T08:36:07.557Z,99.99
2019-01-19T08:37:07.544Z,99.99
2019-01-19T08:38:07.529Z,99.99
2019-01-19T08:39:07.512Z,99.99
2019-01-19T08:40:07.504Z,99.99
2019-01-19T08:41:07.477Z,99.99
2019-01-19T08:42:07.465Z,99.99
2019-01-19T08:43:07.444Z,99.99
2019-01-19T08:44:07.433Z,99.99
2019-01-19T08:45:07.412Z,99.99
2019-01-19T08:46:07.401Z,99.99
2019-01-19T08:47:07.385Z,99.99
2019-01-19T08:48:07.367Z,99.99
2019-01-19T08:49:07.352Z,99.99
2019-01-19T08:50:07.339Z,99.99
2019-01-19T08:51:07.321Z,99.99
2019-01-19T08:52:07.302Z,99.99
2019-01-19T08:53:07.287Z,99.99
2019-01-19T08:54:07.271Z,99.99
2019-01-19T08:55:07.268Z,99.99
2019-01-19T08:56:07.241Z,99.99
2019-01-19T08:57:07.232Z,99.99
2019-01-19T08:58:07.208Z,99.99
2019-01-19T08:59:07.195Z,99.99
2019-01-19T09:00:07.180Z,99.99
2019-01-19T09:01:07.163Z,99.99
2019-01-19T09:02:07.150Z,99.99
2019-01-19T09:03:07.134Z,99.99
2019-01-19T09:04:07.117Z,99.99
2019-01-19T09:05:07.101Z,99.99
2019-01-19T09:06:07.088Z,99.99
2019-01-19T09:07:07.071Z,99.99
2019-01-19T09:08:07.058Z,99.99
2019-01-19T09:09:07.041Z,99.99
2019-01-19T09:10:07.026Z,99.99
2019-01-19T09:11:07.010Z,99.99
2019-01-19T09:12:06.995Z,99.99
2019-01-19T09:13:06.987Z,99.99
2019-01-19T09:14:06.967Z,99.99
2019-01-19T09:15:06.951Z,99.99
2019-01-19T09:16:06.935Z,99.99
2019-01-19T09:17:07.172Z,99.99
2019-01-19T09:18:06.904Z,99.99
2019-01-19T09:19:06.890Z,99.99
2019-01-19T09:20:06.874Z,99.99
2019-01-19T09:21:06.860Z,99.99
2019-01-19T09:22:06.847Z,99.99
2019-01-19T09:23:06.833Z,99.99
2019-01-19T09:24:06.818Z,99.99
2019-01-19T09:25:06.799Z,99.99
2019-01-19T09:26:06.784Z,99.99
2019-01-19T09:27:06.771Z,99.99
2019-01-19T09:28:06.756Z,99.99
2019-01-19T09:29:06.740Z,99.99
2019-01-19T09:30:06.726Z,99.99
2019-01-19T09:31:06.709Z,99.99
2019-01-19T09:32:06.697Z,99.99
2019-01-19T09:33:06.437Z,99.99
2019-01-19T09:34:06.667Z,99.99
2019-01-19T09:35:06.653Z,99.99
2019-01-19T09:36:06.635Z,99.96
2019-01-19T09:37:06.624Z,99.86
2019-01-19T09:38:06.606Z,99.99
2019-01-19T09:39:06.592Z,99.99
2019-01-19T09:40:06.579Z,99.99
2019-01-19T09:41:06.567Z,99.99
2019-01-19T09:42:06.548Z,99.99
2019-01-19T09:43:06.538Z,99.99
2019-01-19T09:44:06.519Z,99.99
2019-01-19T09:45:06.503Z,99.82
2019-01-19T09:46:06.494Z,99.99
2019-01-19T09:47:06.475Z,99.99
2019-01-19T09:48:06.461Z,99.72
2019-01-19T09:49:06.447Z,99.82
2019-01-19T09:50:06.437Z,99.63
2019-01-19T09:51:06.421Z,99.63
2019-01-19T09:52:06.402Z,99.53
2019-01-19T09:53:06.387Z,99.15
2019-01-19T09:54:06.373Z,99.15
2019-01-19T09:55:06.358Z,99.82
2019-01-19T09:56:06.344Z,99.72
2019-01-19T09:57:06.331Z,99.63
2019-01-19T09:58:06.314Z,99.72
2019-01-19T09:59:06.299Z,99.82
2019-01-19T10:00:06.286Z,99.82
2019-01-19T10:01:06.270Z,99.91
2019-01-19T10:02:06.256Z,99.53
2019-01-19T10:03:06.243Z,99.34
2019-01-19T10:04:06.228Z,99.15
2019-01-19T10:05:06.213Z,99.34
2019-01-19T10:06:06.199Z,99.06
2019-01-19T10:07:06.187Z,99.15
2019-01-19T10:08:06.169Z,99.15
2019-01-19T10:09:06.159Z,99.15
2019-01-19T10:10:06.141Z,98.77
2019-01-19T10:11:06.127Z,99.06
2019-01-19T10:12:06.113Z,99.44
2019-01-19T10:13:06.101Z,99.34
2019-01-19T10:14:06.082Z,98.96
2019-01-19T10:15:06.069Z,98.77
2019-01-19T10:16:06.053Z,99.34
2019-01-19T10:17:06.037Z,98.68
2019-01-19T10:18:06.030Z,99.06
2019-01-19T10:19:06.011Z,99.34
2019-01-19T10:20:06.002Z,99.53
2019-01-19T10:21:05.982Z,99.15
2019-01-19T10:22:05.976Z,99.06
2019-01-19T10:23:05.952Z,99.34
2019-01-19T10:24:05.938Z,99.25
2019-01-19T10:25:05.924Z,99.15
2019-01-19T10:26:05.907Z,98.96
2019-01-19T10:27:05.893Z,98.77
2019-01-19T10:28:05.880Z,98.58
2019-01-19T10:29:05.869Z,99.06
2019-01-19T10:30:05.856Z,99.63
2019-01-19T10:31:05.838Z,99.34
2019-01-19T10:32:05.822Z,98.58
2019-01-19T10:33:05.807Z,98.77
2019-01-19T10:34:05.793Z,98.87
2019-01-19T10:35:05.779Z,98.58
2019-01-19T10:36:05.763Z,98.39
2019-01-19T10:37:05.759Z,98.02
2019-01-19T10:38:05.733Z,98.58
2019-01-19T10:39:05.721Z,98.58
2019-01-19T10:40:05.703Z,99.25
2019-01-19T10:41:05.453Z,99.06
2019-01-19T10:42:05.740Z,98.87
2019-01-19T10:43:05.661Z,98.58
2019-01-19T10:44:05.647Z,98.77
2019-01-19T10:45:05.637Z,98.21
2019-01-19T10:46:05.617Z,98.11
2019-01-19T10:47:05.603Z,98.77
2019-01-19T10:48:05.589Z,98.58
2019-01-19T10:49:05.573Z,98.49
2019-01-19T10:50:05.563Z,98.87
2019-01-19T10:51:05.544Z,99.53
2019-01-19T10:52:05.530Z,99.25
2019-01-19T10:53:05.520Z,98.87
2019-01-19T10:54:05.522Z,98.21
2019-01-19T10:55:05.487Z,98.02
2019-01-19T10:56:05.479Z,97.64
2019-01-19T10:57:05.459Z,97.45
2019-01-19T10:58:05.442Z,97.83
2019-01-19T10:59:05.433Z,97.92
2019-01-19T11:00:05.484Z,98.58
2019-01-19T11:01:05.402Z,97.83
2019-01-19T11:02:05.390Z,98.39
2019-01-19T11:03:05.380Z,98.39
2019-01-19T11:04:05.356Z,98.49
2019-01-19T11:05:05.345Z,98.77
2019-01-19T11:06:05.328Z,98.68
2019-01-19T11:07:05.322Z,98.77
2019-01-19T11:08:06.185Z,98.49
2019-01-19T11:09:05.287Z,98.02
2019-01-19T11:10:05.277Z,99.01
2019-01-19T11:11:05.260Z,98.02
2019-01-19T11:12:05.243Z,98.92
2019-01-19T11:13:05.231Z,99.11
2019-01-19T11:14:05.217Z,99.01
2019-01-19T11:15:05.207Z,98.44
2019-01-19T11:16:05.188Z,98.63
2019-01-19T11:17:05.172Z,98.63
2019-01-19T11:18:05.161Z,98.63
2019-01-19T11:19:05.142Z,99.11
2019-01-19T11:20:05.128Z,99.01
2019-01-19T11:21:05.119Z,99.01
2019-01-19T11:22:05.123Z,98.82
2019-01-19T11:23:05.088Z,99.01
2019-01-19T11:24:05.085Z,98.25
2019-01-19T11:25:05.059Z,97.97
2019-01-19T11:26:05.042Z,98.54
2019-01-19T11:27:05.028Z,98.44
2019-01-19T11:28:05.014Z,98.63
2019-01-19T11:29:05.004Z,98.16
2019-01-19T11:30:04.987Z,98.63
2019-01-19T11:31:04.974Z,98.07
2019-01-19T11:32:04.958Z,97.78
2019-01-19T11:33:04.947Z,97.78
2019-01-19T11:34:05.334Z,97.88
2019-01-19T11:35:04.918Z,98.07
2019-01-19T11:36:04.907Z,98.16
2019-01-19T11:37:04.886Z,97.88
2019-01-19T11:38:11.598Z,98.35
2019-01-19T11:39:04.858Z,98.25
2019-01-19T11:40:04.846Z,97.88
2019-01-19T11:41:04.831Z,98.35
2019-01-19T11:42:04.817Z,99.01
2019-01-19T11:43:04.805Z,98.73
2019-01-19T11:44:04.788Z,98.92
2019-01-19T11:45:04.782Z,98.82
2019-01-19T11:46:04.763Z,98.35
2019-01-19T11:47:04.510Z,98.44
2019-01-19T11:48:04.734Z,97.78
2019-01-19T11:49:04.719Z,98.25
2019-01-19T11:50:04.703Z,98.63
2019-01-19T11:51:04.690Z,98.16
2019-01-19T11:52:04.675Z,98.54
2019-01-19T11:53:04.664Z,98.54
2019-01-19T11:54:04.648Z,98.16
2019-01-19T11:55:04.636Z,97.88
2019-01-19T11:56:11.908Z,98.07
2019-01-19T11:57:04.607Z,97.78
2019-01-19T11:58:04.597Z,97.97
2019-01-19T11:59:04.578Z,98.07
2019-01-19T12:00:04.564Z,98.07
2019-01-19T12:01:04.550Z,98.16
2019-01-19T12:02:04.541Z,97.78
2019-01-19T12:03:04.523Z,97.78
2019-01-19T12:04:04.509Z,98.07
2019-01-19T12:05:04.494Z,97.97
2019-01-19T12:06:04.482Z,97.4
2019-01-19T12:07:04.471Z,96.55
2019-01-19T12:08:04.454Z,96.83
2019-01-19T12:09:04.440Z,96.64
2019-01-19T12:10:04.428Z,97.4
2019-01-19T12:11:04.413Z,97.12
2019-01-19T12:12:04.398Z,97.88
2019-01-19T12:13:04.386Z,97.5
2019-01-19T12:14:04.369Z,97.59
2019-01-19T12:15:04.361Z,96.55
2019-01-19T12:16:04.344Z,96.73
2019-01-19T12:17:04.329Z,97.12
2019-01-19T12:18:04.315Z,97.97
2019-01-19T12:19:04.300Z,98.07
2019-01-19T12:20:04.286Z,98.07
2019-01-19T12:21:04.270Z,98.35
2019-01-19T12:22:04.017Z,97.88
2019-01-19T12:23:04.249Z,97.97
2019-01-19T12:24:05.603Z,98.35
2019-01-19T12:25:04.234Z,97.88
2019-01-19T12:26:04.204Z,98.44
2019-01-19T12:27:04.192Z,98.25
2019-01-19T12:28:04.175Z,98.16
2019-01-19T12:29:04.161Z,98.07
2019-01-19T12:30:04.148Z,97.88
2019-01-19T12:31:04.133Z,98.44
2019-01-19T12:32:04.120Z,98.07
2019-01-19T12:33:04.105Z,98.16
2019-01-19T12:34:04.091Z,98.44
2019-01-19T12:35:04.085Z,97.88
2019-01-19T12:36:04.062Z,98.25
2019-01-19T12:37:04.049Z,98.35
2019-01-19T12:38:04.039Z,97.5
2019-01-19T12:39:04.025Z,97.5
2019-01-19T12:40:04.018Z,97.88
2019-01-19T12:41:03.993Z,98.07
2019-01-19T12:42:03.992Z,98.07
2019-01-19T12:43:03.967Z,98.25
2019-01-19T12:44:03.949Z,98.16
2019-01-19T12:45:03.938Z,98.44
2019-01-19T12:46:03.922Z,98.25
2019-01-19T12:47:03.910Z,98.82
2019-01-19T12:48:03.656Z,98.63
2019-01-19T12:49:03.881Z,98.82
2019-01-19T12:50:03.870Z,98.92
2019-01-19T12:51:03.853Z,98.35
2019-01-19T12:52:03.863Z,98.25